createdAt,value
2023-04-23T00:01:50.138Z,14.71
2023-04-23T00:04:21.996Z,14.68
2023-04-23T00:06:53.563Z,14.64
2023-04-23T00:09:23.759Z,14.66
2023-04-23T00:11:52.762Z,14.67
2023-04-23T00:14:21.847Z,14.67
2023-04-23T00:16:51.144Z,14.60
2023-04-23T00:19:21.573Z,14.56
2023-04-23T00:21:50.723Z,14.59
2023-04-23T00:24:20.598Z,14.67
2023-04-23T00:26:49.630Z,14.69
2023-04-23T00:29:18.311Z,14.69
2023-04-23T00:31:47.326Z,14.60
2023-04-23T00:34:16.578Z,14.48
2023-04-23T00:36:45.501Z,14.41
2023-04-23T00:39:14.444Z,14.34
2023-04-23T00:41:43.989Z,14.33
2023-04-23T00:44:13.633Z,14.26
2023-04-23T00:46:42.975Z,14.22
2023-04-23T00:49:12.941Z,14.21
2023-04-23T00:51:42.397Z,14.20
2023-04-23T00:54:11.237Z,14.17
2023-04-23T00:56:40.181Z,14.16
2023-04-23T00:59:09.194Z,14.18
2023-04-23T01:01:38.341Z,14.14
2023-04-23T01:04:10.027Z,14.12
2023-04-23T01:06:39.628Z,14.15
2023-04-23T01:09:10.563Z,14.07
2023-04-23T01:11:42.759Z,13.92
2023-04-23T01:14:12.113Z,13.83
2023-04-23T01:16:41.425Z,13.85
2023-04-23T01:19:11.682Z,13.86
2023-04-23T01:21:42.051Z,13.89
2023-04-23T01:24:12.080Z,13.91
2023-04-23T01:26:41.172Z,13.90
2023-04-23T01:29:11.698Z,13.87
2023-04-23T01:31:41.589Z,13.81
2023-04-23T01:34:10.941Z,13.78
2023-04-23T01:36:42.226Z,13.71
2023-04-23T01:39:11.092Z,13.66
2023-04-23T01:41:41.429Z,13.61
2023-04-23T01:44:11.166Z,13.58
2023-04-23T01:46:39.985Z,13.61
2023-04-23T01:49:09.441Z,13.65
2023-04-23T01:51:38.495Z,13.65
2023-04-23T01:54:07.449Z,13.60
2023-04-23T01:56:36.681Z,13.58
2023-04-23T01:59:05.953Z,13.58
2023-04-23T02:01:46.770Z,13.45
2023-04-23T02:04:17.102Z,13.29
2023-04-23T02:06:50.176Z,13.28
2023-04-23T02:09:19.047Z,13.20
2023-04-23T02:11:47.989Z,13.22
2023-04-23T02:14:17.806Z,13.24
2023-04-23T02:16:47.905Z,13.19
2023-04-23T02:19:17.115Z,13.14
2023-04-23T02:21:45.745Z,13.14
2023-04-23T02:24:14.573Z,13.17
2023-04-23T02:26:43.433Z,13.19
2023-04-23T02:29:12.152Z,13.18
2023-04-23T02:31:41.041Z,13.17
2023-04-23T02:34:09.944Z,13.13
2023-04-23T02:36:39.644Z,13.14
2023-04-23T02:39:08.618Z,13.01
2023-04-23T02:41:37.457Z,12.91
2023-04-23T02:44:06.188Z,12.85
2023-04-23T02:46:36.804Z,12.88
2023-04-23T02:49:07.171Z,12.94
2023-04-23T02:51:36.051Z,12.95
2023-04-23T02:54:05.124Z,12.90
2023-04-23T02:56:34.290Z,12.76
2023-04-23T02:59:03.373Z,12.61
2023-04-23T03:01:32.492Z,12.50
2023-04-23T03:04:02.053Z,12.40
2023-04-23T03:06:32.264Z,12.32
2023-04-23T03:09:01.413Z,12.27
2023-04-23T03:11:30.130Z,12.35
2023-04-23T03:13:58.766Z,12.48
2023-04-23T03:16:29.060Z,12.53
2023-04-23T03:18:58.407Z,12.48
2023-04-23T03:21:27.752Z,12.51
2023-04-23T03:23:56.713Z,12.54
2023-04-23T03:26:26.599Z,12.53
2023-04-23T03:28:55.810Z,12.47
2023-04-23T03:31:25.051Z,12.38
2023-04-23T03:33:54.446Z,12.34
2023-04-23T03:36:23.604Z,12.42
2023-04-23T03:38:53.291Z,12.49
2023-04-23T03:41:22.197Z,12.48
2023-04-23T03:43:51.652Z,12.26
2023-04-23T03:46:20.869Z,12.06
2023-04-23T03:48:49.971Z,11.99
2023-04-23T03:51:18.858Z,11.98
2023-04-23T03:53:48.115Z,11.97
2023-04-23T03:56:17.602Z,11.99
2023-04-23T03:58:46.689Z,12.00
2023-04-23T04:01:15.827Z,11.94
2023-04-23T04:03:45.061Z,11.94
2023-04-23T04:06:14.375Z,11.97
2023-04-23T04:08:43.429Z,12.00
2023-04-23T04:11:12.889Z,12.01
2023-04-23T04:13:41.978Z,11.85
2023-04-23T04:16:11.208Z,11.68
2023-04-23T04:18:40.095Z,11.56
2023-04-23T04:21:09.253Z,11.47
2023-04-23T04:23:38.199Z,11.47
2023-04-23T04:26:08.517Z,11.54
2023-04-23T04:28:38.063Z,11.55
2023-04-23T04:31:09.079Z,11.55
2023-04-23T04:33:40.288Z,11.59
2023-04-23T04:36:10.373Z,11.66
2023-04-23T04:38:39.578Z,11.76
2023-04-23T04:41:08.503Z,11.87
2023-04-23T04:43:38.264Z,12.05
2023-04-23T04:46:07.584Z,12.20
2023-04-23T04:48:36.617Z,12.29
2023-04-23T04:51:05.536Z,12.36
2023-04-23T04:53:36.511Z,12.43
2023-04-23T04:56:06.132Z,12.52
2023-04-23T04:58:35.156Z,12.69
2023-04-23T05:01:04.423Z,12.90
2023-04-23T05:03:34.594Z,13.09
2023-04-23T05:06:03.436Z,13.23
2023-04-23T05:08:32.369Z,13.33
2023-04-23T05:11:02.314Z,13.37
2023-04-23T05:13:31.189Z,13.48
2023-04-23T05:16:00.362Z,13.64
2023-04-23T05:18:29.983Z,13.83
2023-04-23T05:20:59.054Z,13.97
2023-04-23T05:23:27.840Z,14.14
2023-04-23T05:25:58.495Z,14.22
2023-04-23T05:28:27.184Z,14.25
2023-04-23T05:30:57.119Z,14.29
2023-04-23T05:33:33.493Z,14.28
2023-04-23T05:36:08.727Z,14.16
2023-04-23T05:38:38.918Z,14.08
2023-04-23T05:41:08.316Z,14.06
2023-04-23T05:43:37.906Z,14.13
2023-04-23T05:46:07.975Z,14.22
2023-04-23T05:48:37.261Z,14.26
2023-04-23T05:51:06.470Z,14.33
2023-04-23T05:53:36.475Z,14.36
2023-04-23T05:56:06.380Z,14.47
2023-04-23T05:58:35.515Z,14.70
2023-04-23T06:01:05.249Z,14.89
2023-04-23T06:03:35.289Z,15.06
2023-04-23T06:06:04.646Z,15.17
2023-04-23T06:08:33.261Z,15.33
2023-04-23T06:11:03.026Z,15.47
2023-04-23T06:13:32.538Z,15.50
2023-04-23T06:16:01.916Z,15.61
2023-04-23T06:18:31.679Z,15.71
2023-04-23T06:21:04.949Z,15.78
2023-04-23T06:23:36.324Z,15.80
2023-04-23T06:26:06.320Z,15.81
2023-04-23T06:28:36.240Z,15.97
2023-04-23T06:31:06.923Z,16.22
2023-04-23T06:33:37.869Z,16.51
2023-04-23T06:36:11.835Z,17.06
2023-04-23T06:38:41.783Z,17.79
2023-04-23T06:41:13.532Z,18.44
2023-04-23T06:43:43.594Z,19.02
2023-04-23T06:46:13.244Z,19.76
2023-04-23T06:48:43.019Z,20.44
2023-04-23T06:51:12.306Z,21.11
2023-04-23T06:53:41.470Z,21.69
2023-04-23T06:56:11.129Z,22.24
2023-04-23T06:58:42.440Z,22.90
2023-04-23T07:01:11.967Z,23.33
2023-04-23T07:03:45.054Z,23.77
2023-04-23T07:06:14.481Z,24.20
2023-04-23T07:08:45.691Z,24.56
2023-04-23T07:11:15.238Z,24.73
2023-04-23T07:13:44.237Z,25.08
2023-04-23T07:16:14.244Z,25.59
2023-04-23T07:18:43.911Z,26.24
2023-04-23T07:21:13.395Z,26.72
2023-04-23T07:23:42.669Z,27.12
2023-04-23T07:26:12.340Z,27.48
2023-04-23T07:28:41.168Z,27.50
2023-04-23T07:31:11.021Z,27.37
2023-04-23T07:33:40.000Z,26.93
2023-04-23T07:36:09.895Z,26.74
2023-04-23T07:38:38.807Z,26.90
2023-04-23T07:41:07.773Z,27.24
2023-04-23T07:43:36.872Z,27.50
2023-04-23T07:46:05.919Z,27.57
2023-04-23T07:48:37.997Z,27.75
2023-04-23T07:51:07.475Z,28.11
2023-04-23T07:53:36.717Z,28.46
2023-04-23T07:56:05.722Z,28.82
2023-04-23T07:58:35.847Z,29.15
2023-04-23T08:01:05.419Z,29.38
2023-04-23T08:03:34.795Z,29.60
2023-04-23T08:06:05.290Z,29.87
2023-04-23T08:08:34.430Z,30.08
2023-04-23T08:11:03.446Z,30.30
2023-04-23T08:13:32.154Z,30.42
2023-04-23T08:16:01.608Z,30.43
2023-04-23T08:18:30.524Z,30.53
2023-04-23T08:20:59.933Z,30.63
2023-04-23T08:23:28.643Z,30.74
2023-04-23T08:25:58.053Z,31.12
2023-04-23T08:28:28.473Z,31.24
2023-04-23T08:30:57.826Z,31.52
2023-04-23T08:33:27.521Z,31.83
2023-04-23T08:35:56.670Z,32.15
2023-04-23T08:38:25.975Z,32.51
2023-04-23T08:40:59.069Z,32.86
2023-04-23T08:43:38.311Z,33.09
2023-04-23T08:46:12.194Z,33.18
2023-04-23T08:48:42.037Z,33.50
2023-04-23T08:51:13.887Z,33.93
2023-04-23T08:53:46.694Z,34.08
2023-04-23T08:56:16.285Z,34.32
2023-04-23T08:58:46.716Z,34.47
2023-04-23T09:01:16.901Z,34.46
2023-04-23T09:03:47.734Z,34.61
2023-04-23T09:06:16.979Z,34.70
2023-04-23T09:08:47.404Z,34.76
2023-04-23T09:11:17.746Z,35.01
2023-04-23T09:13:47.657Z,35.20
2023-04-23T09:16:17.305Z,35.33
2023-04-23T09:18:47.664Z,35.65
2023-04-23T09:21:17.177Z,35.80
2023-04-23T09:23:46.534Z,35.74
2023-04-23T09:26:24.817Z,35.88
2023-04-23T09:28:53.898Z,35.88
2023-04-23T09:31:26.317Z,35.93
2023-04-23T09:33:56.676Z,35.90
2023-04-23T09:36:28.763Z,35.19
2023-04-23T09:38:59.859Z,34.29
2023-04-23T09:41:30.204Z,33.37
2023-04-23T09:43:59.586Z,33.07
2023-04-23T09:46:39.908Z,32.52
2023-04-23T09:49:11.250Z,32.11
2023-04-23T09:51:44.647Z,31.77
2023-04-23T09:54:25.600Z,31.64
2023-04-23T09:57:00.914Z,31.92
2023-04-23T10:02:05.369Z,33.07
2023-04-23T10:04:35.378Z,34.23
2023-04-23T10:07:19.002Z,35.10
2023-04-23T10:09:50.641Z,36.09
2023-04-23T10:12:41.028Z,36.91
2023-04-23T10:15:12.043Z,36.83
2023-04-23T10:17:42.790Z,36.57
2023-04-23T10:20:13.343Z,36.63
2023-04-23T10:22:47.207Z,36.63
2023-04-23T10:25:18.886Z,35.85
2023-04-23T10:27:54.219Z,35.56
2023-04-23T10:30:24.645Z,34.44
2023-04-23T10:32:54.657Z,33.16
2023-04-23T10:35:23.749Z,31.78
2023-04-23T10:37:53.391Z,30.63
2023-04-23T10:40:31.294Z,30.49
2023-04-23T10:43:01.540Z,31.22
2023-04-23T10:45:33.229Z,32.08
2023-04-23T10:48:05.225Z,32.69
2023-04-23T10:50:38.126Z,32.97
2023-04-23T10:53:22.444Z,33.16
2023-04-23T10:55:52.237Z,33.79
2023-04-23T10:58:22.791Z,34.35
2023-04-23T11:00:53.020Z,34.72
2023-04-23T11:03:43.598Z,34.96
2023-04-23T11:06:20.084Z,35.16
2023-04-23T11:08:54.656Z,35.20
2023-04-23T11:11:41.769Z,34.95
2023-04-23T11:14:16.952Z,34.39
2023-04-23T11:16:46.736Z,33.99
2023-04-23T11:19:19.904Z,33.76
2023-04-23T11:22:14.275Z,33.40
2023-04-23T11:24:47.669Z,32.82
2023-04-23T11:27:21.036Z,32.14
2023-04-23T11:29:50.354Z,31.86
2023-04-23T11:32:20.156Z,31.41
2023-04-23T11:34:50.888Z,30.98
2023-04-23T11:37:20.299Z,30.99
2023-04-23T11:39:49.981Z,31.24
2023-04-23T11:42:22.634Z,31.40
2023-04-23T11:44:53.891Z,32.14
2023-04-23T11:47:27.702Z,32.95
2023-04-23T11:49:57.420Z,33.48
2023-04-23T11:52:27.715Z,33.83
2023-04-23T11:54:56.869Z,34.02
2023-04-23T11:57:26.832Z,34.40
2023-04-23T11:59:56.318Z,34.13
2023-04-23T12:02:26.760Z,33.00
2023-04-23T12:04:56.548Z,32.53
2023-04-23T12:07:33.688Z,32.93
2023-04-23T12:10:02.743Z,33.18
2023-04-23T12:12:36.369Z,33.79
2023-04-23T12:15:07.515Z,33.91
2023-04-23T12:17:37.357Z,33.89
2023-04-23T12:20:10.523Z,34.51
2023-04-23T12:22:40.537Z,34.83
2023-04-23T12:25:10.187Z,34.17
2023-04-23T12:27:41.589Z,33.48
2023-04-23T12:30:12.441Z,33.46
2023-04-23T12:32:42.656Z,32.69
2023-04-23T12:35:12.819Z,31.87
2023-04-23T12:37:43.134Z,31.26
2023-04-23T12:40:14.195Z,31.02
2023-04-23T12:42:44.428Z,30.76
2023-04-23T12:45:13.857Z,30.59
2023-04-23T12:47:43.743Z,30.93
2023-04-23T12:50:12.967Z,30.83
2023-04-23T12:52:43.976Z,30.51
2023-04-23T12:55:13.663Z,30.32
2023-04-23T12:57:43.118Z,30.30
2023-04-23T13:00:12.852Z,30.05
2023-04-23T13:02:41.738Z,29.67
2023-04-23T13:05:11.191Z,29.42
2023-04-23T13:07:40.167Z,29.19
2023-04-23T13:10:10.396Z,29.18
2023-04-23T13:12:41.162Z,29.31
2023-04-23T13:15:10.387Z,29.61
2023-04-23T13:17:39.765Z,30.07
2023-04-23T13:20:09.527Z,30.76
2023-04-23T13:22:39.374Z,31.02
2023-04-23T13:25:09.152Z,30.61
2023-04-23T13:27:38.319Z,30.35
2023-04-23T13:30:08.902Z,30.37
2023-04-23T13:32:38.151Z,30.27
2023-04-23T13:35:07.765Z,30.33
2023-04-23T13:37:36.834Z,29.95
2023-04-23T13:40:06.883Z,29.44
2023-04-23T13:42:35.936Z,29.06
2023-04-23T13:45:07.093Z,28.69
2023-04-23T13:47:36.194Z,28.31
2023-04-23T13:50:07.345Z,28.03
2023-04-23T13:52:37.616Z,27.84
2023-04-23T13:55:08.448Z,27.93
2023-04-23T13:57:39.068Z,28.46
2023-04-23T14:00:09.549Z,28.80
2023-04-23T14:02:39.549Z,29.39
2023-04-23T14:05:09.724Z,29.75
2023-04-23T14:07:39.125Z,29.90
2023-04-23T14:10:08.897Z,30.07
2023-04-23T14:12:39.462Z,30.23
2023-04-23T14:15:12.610Z,30.40
2023-04-23T14:17:43.752Z,30.43
2023-04-23T14:20:16.202Z,30.63
2023-04-23T14:22:51.144Z,30.45
2023-04-23T14:25:41.451Z,30.35
2023-04-23T14:28:24.642Z,30.20
2023-04-23T14:30:56.812Z,30.08
2023-04-23T14:33:25.959Z,30.21
2023-04-23T14:35:55.083Z,30.32
2023-04-23T14:38:24.155Z,29.87
2023-04-23T14:40:54.080Z,29.25
2023-04-23T14:43:23.625Z,28.71
2023-04-23T14:45:53.310Z,28.50
2023-04-23T14:48:23.014Z,27.97
2023-04-23T14:50:52.507Z,27.52
2023-04-23T14:53:22.159Z,27.09
2023-04-23T14:55:50.867Z,26.75
2023-04-23T14:58:19.968Z,26.29
2023-04-23T15:00:50.120Z,25.93
2023-04-23T15:03:20.087Z,25.66
2023-04-23T15:05:49.507Z,25.43
2023-04-23T15:08:18.221Z,25.18
2023-04-23T15:10:47.332Z,24.88
2023-04-23T15:13:16.282Z,24.66
2023-04-23T15:15:51.179Z,24.49
2023-04-23T15:18:20.433Z,24.33
2023-04-23T15:20:49.874Z,24.25
2023-04-23T15:23:21.312Z,24.42
2023-04-23T15:25:52.108Z,24.49
2023-04-23T15:28:21.721Z,24.52
2023-04-23T15:30:51.796Z,24.47
2023-04-23T15:33:22.497Z,24.46
2023-04-23T15:35:52.323Z,24.33
2023-04-23T15:38:22.368Z,24.11
2023-04-23T15:40:51.929Z,23.95
2023-04-23T15:43:21.009Z,23.84
2023-04-23T15:45:50.683Z,23.81
2023-04-23T15:48:19.801Z,23.76
2023-04-23T15:50:49.084Z,23.57
2023-04-23T15:53:20.385Z,23.41
2023-04-23T15:55:52.931Z,23.31
2023-04-23T15:58:22.276Z,23.17
2023-04-23T16:00:51.494Z,23.09
2023-04-23T16:03:20.768Z,23.08
2023-04-23T16:05:51.460Z,23.03
2023-04-23T16:08:20.690Z,23.04
2023-04-23T16:10:49.770Z,22.97
2023-04-23T16:13:19.224Z,22.96
2023-04-23T16:15:48.439Z,22.95
2023-04-23T16:18:17.578Z,22.87
2023-04-23T16:20:46.768Z,22.79
2023-04-23T16:23:16.817Z,22.69
2023-04-23T16:25:46.045Z,22.61
2023-04-23T16:28:16.178Z,22.53
2023-04-23T16:30:45.490Z,22.50
2023-04-23T16:33:15.621Z,22.44
2023-04-23T16:35:45.123Z,22.34
2023-04-23T16:38:14.719Z,22.24
2023-04-23T16:40:47.896Z,22.19
2023-04-23T16:43:17.594Z,22.16
2023-04-23T16:45:47.280Z,22.09
2023-04-23T16:48:18.369Z,21.98
2023-04-23T16:50:49.366Z,21.88
2023-04-23T16:53:19.080Z,21.84
2023-04-23T16:55:49.098Z,21.74
2023-04-23T16:58:23.451Z,21.66
2023-04-23T17:00:52.747Z,21.54
2023-04-23T17:03:22.601Z,21.52
2023-04-23T17:06:01.923Z,21.50
2023-04-23T17:08:32.069Z,21.36
2023-04-23T17:11:02.245Z,21.32
2023-04-23T17:13:31.902Z,21.22
2023-04-23T17:16:03.130Z,21.16
2023-04-23T17:18:33.052Z,21.08
2023-04-23T17:21:02.671Z,21.01
2023-04-23T17:23:33.029Z,20.97
2023-04-23T17:26:02.294Z,20.91
2023-04-23T17:28:31.456Z,20.89
2023-04-23T17:31:01.623Z,20.88
2023-04-23T17:33:30.762Z,20.77
2023-04-23T17:36:00.360Z,20.64
2023-04-23T17:38:29.992Z,20.52
2023-04-23T17:41:00.346Z,20.44
2023-04-23T17:43:32.221Z,20.39
2023-04-23T17:46:03.879Z,20.32
2023-04-23T17:48:34.070Z,20.27
2023-04-23T17:51:03.109Z,20.19
2023-04-23T17:53:32.789Z,20.09
2023-04-23T17:56:03.898Z,19.95
2023-04-23T17:58:33.693Z,19.84
2023-04-23T18:01:03.908Z,19.74
2023-04-23T18:03:35.464Z,19.65
2023-04-23T18:06:05.562Z,19.60
2023-04-23T18:08:34.893Z,19.53
2023-04-23T18:11:06.316Z,19.45
2023-04-23T18:13:36.873Z,19.42
2023-04-23T18:16:06.135Z,19.33
2023-04-23T18:18:35.533Z,19.25
2023-04-23T18:21:06.122Z,19.16
2023-04-23T18:23:36.212Z,19.08
2023-04-23T18:26:05.447Z,19.01
2023-04-23T18:28:35.509Z,18.96
2023-04-23T18:31:05.454Z,18.93
2023-04-23T18:33:44.354Z,18.90
2023-04-23T18:36:42.851Z,18.87
2023-04-23T18:39:13.550Z,18.80
2023-04-23T18:41:43.613Z,18.80
2023-04-23T18:44:14.932Z,18.79
2023-04-23T18:46:47.750Z,18.76
2023-04-23T18:49:35.688Z,18.74
2023-04-23T18:52:06.683Z,18.61
2023-04-23T18:54:37.030Z,18.52
2023-04-23T18:57:07.833Z,18.44
2023-04-23T18:59:38.971Z,18.37
2023-04-23T19:02:11.825Z,18.30
2023-04-23T19:04:43.783Z,18.27
2023-04-23T19:07:14.909Z,18.26
2023-04-23T19:09:45.460Z,18.24
2023-04-23T19:12:15.817Z,18.19
2023-04-23T19:14:46.669Z,18.15
2023-04-23T19:17:18.814Z,18.14
2023-04-23T19:19:50.916Z,18.09
2023-04-23T19:22:26.038Z,18.05
2023-04-23T19:24:58.348Z,18.05
2023-04-23T19:27:30.550Z,18.05
2023-04-23T19:30:03.601Z,18.02
2023-04-23T19:32:35.514Z,17.99
2023-04-23T19:35:07.163Z,17.94
2023-04-23T19:37:39.403Z,17.89
2023-04-23T19:40:11.954Z,17.83
2023-04-23T19:42:43.536Z,17.81
2023-04-23T19:45:17.593Z,17.81
2023-04-23T19:47:48.368Z,17.74
2023-04-23T19:50:20.529Z,17.67
2023-04-23T19:52:50.613Z,17.59
2023-04-23T19:55:23.375Z,17.56
2023-04-23T19:57:58.581Z,17.44
2023-04-23T20:00:32.207Z,17.30
2023-04-23T20:03:02.481Z,17.17
2023-04-23T20:05:33.359Z,17.07
2023-04-23T20:08:05.554Z,16.99
2023-04-23T20:10:35.646Z,17.01
2023-04-23T20:13:06.689Z,17.00
2023-04-23T20:15:38.220Z,16.99
2023-04-23T20:18:08.918Z,16.96
2023-04-23T20:20:40.578Z,16.92
2023-04-23T20:23:10.160Z,16.90
2023-04-23T20:25:41.310Z,16.94
2023-04-23T20:28:12.724Z,16.96
2023-04-23T20:30:43.649Z,16.95
2023-04-23T20:33:14.045Z,16.96
2023-04-23T20:35:44.031Z,16.99
2023-04-23T20:38:19.861Z,16.95
2023-04-23T20:40:51.020Z,16.90
2023-04-23T20:43:22.740Z,16.85
2023-04-23T20:45:52.992Z,16.83
2023-04-23T20:48:25.776Z,16.83
2023-04-23T20:50:57.087Z,16.80
2023-04-23T20:53:27.134Z,16.76
2023-04-23T20:56:00.818Z,16.70
2023-04-23T20:58:30.309Z,16.65
2023-04-23T21:01:01.634Z,16.63
2023-04-23T21:03:37.803Z,16.59
2023-04-23T21:06:09.644Z,16.57
2023-04-23T21:08:43.383Z,16.56
2023-04-23T21:11:18.506Z,16.56
2023-04-23T21:13:48.526Z,16.57
2023-04-23T21:16:18.380Z,16.54
2023-04-23T21:18:47.560Z,16.52
2023-04-23T21:21:17.702Z,16.46
2023-04-23T21:23:47.663Z,16.42
2023-04-23T21:26:16.761Z,16.37
2023-04-23T21:28:46.116Z,16.30
2023-04-23T21:31:23.273Z,16.28
2023-04-23T21:33:53.862Z,16.24
2023-04-23T21:36:24.474Z,16.26
2023-04-23T21:38:53.815Z,16.27
2023-04-23T21:41:25.155Z,16.26
2023-04-23T21:43:54.573Z,16.23
2023-04-23T21:46:25.392Z,16.22
2023-04-23T21:48:55.897Z,16.21
2023-04-23T21:51:28.440Z,16.19
2023-04-23T21:53:59.334Z,16.14
2023-04-23T21:56:29.475Z,16.13
2023-04-23T21:59:00.170Z,16.10
2023-04-23T22:01:29.882Z,16.09
2023-04-23T22:03:59.435Z,16.08
2023-04-23T22:06:29.226Z,16.04
2023-04-23T22:08:58.262Z,16.03
2023-04-23T22:11:27.440Z,16.01
2023-04-23T22:13:57.185Z,15.98
2023-04-23T22:16:29.109Z,15.93
2023-04-23T22:18:58.328Z,15.89
2023-04-23T22:21:28.664Z,15.82
2023-04-23T22:23:57.395Z,15.76
2023-04-23T22:26:26.412Z,15.73
2023-04-23T22:28:55.766Z,15.73
2023-04-23T22:31:24.702Z,15.69
2023-04-23T22:33:53.985Z,15.66
2023-04-23T22:36:23.110Z,15.68
2023-04-23T22:38:52.058Z,15.70
2023-04-23T22:41:21.381Z,15.75
2023-04-23T22:43:52.925Z,15.79
2023-04-23T22:46:22.226Z,15.84
2023-04-23T22:48:53.079Z,15.92
2023-04-23T22:51:22.159Z,15.96
2023-04-23T22:53:50.948Z,15.99
2023-04-23T22:56:20.761Z,16.07
2023-04-23T22:58:50.310Z,16.16
2023-04-23T23:01:21.318Z,16.22
2023-04-23T23:03:51.147Z,16.26
2023-04-23T23:06:20.179Z,16.25
2023-04-23T23:08:49.711Z,16.25
2023-04-23T23:11:18.875Z,16.28
2023-04-23T23:13:48.305Z,16.32
2023-04-23T23:16:18.635Z,16.36
2023-04-23T23:18:47.826Z,16.31
2023-04-23T23:21:17.648Z,16.26
2023-04-23T23:23:46.802Z,16.26
2023-04-23T23:26:16.071Z,16.34
2023-04-23T23:28:45.103Z,16.35
2023-04-23T23:31:13.978Z,16.33
2023-04-23T23:33:43.374Z,16.35
2023-04-23T23:36:12.563Z,16.38
2023-04-23T23:38:41.457Z,16.43
2023-04-23T23:41:10.586Z,16.38
2023-04-23T23:43:39.186Z,16.32
2023-04-23T23:46:08.554Z,16.29
2023-04-23T23:48:37.352Z,16.30
2023-04-23T23:51:06.475Z,16.33
2023-04-23T23:53:35.653Z,16.32
2023-04-23T23:56:04.723Z,16.29
2023-04-23T23:58:33.459Z,16.25
